Hitachimaru — JD2063 — position and weather

sailwx.info

Track history (hours):
 
Tides and Currents Weather Stations Pressure Air Temp Water Temp Dewpoint Dewpoint Depression Visibility Wind Speed Wind Dir Waves Ship Positions

Hitachimaru

Last reported at 2015-Aug-31 01:07 UTC. Time now 2015-Aug-31 21:53 UTC.
Position N 34°51' E 139°43'.

Length 83 m; draft 4.5 m.

Type: Cargo ship. MMSI: 431301756.

Date/timePositionNaut miles runAvg speedWind from/ knotsBaromVisibWave heightAir tempDewpointWater temp
2015-Aug-31 01:07N 34°51' E 139°43'1211.8
2015-Aug-31 00:05N 34°53' E 139°57'712.2
2015-Aug-30 23:28N 34°57' E 140°05'3311.3
2015-Aug-30 20:32N 35°20' E 140°35'1111.8
2015-Aug-30 19:33N 35°29' E 140°43'29 9.6
2015-Aug-30 16:33N 35°58' E 140°43'3 3.2
2015-Aug-30 15:33N 35°56' E 140°40'0 0.0
2015-Aug-29 21:25N 35°56' E 140°40'3 3.4
2015-Aug-29 20:33N 35°58' E 140°43'66 9.4
2015-Aug-29 13:33N 34°58' E 140°08'21 9.8
2015-Aug-29 11:25N 34°58' E 139°43'1113.3
2015-Aug-29 10:33N 35°09' E 139°45'1312.7
2015-Aug-29 09:33N 35°22' E 139°42'3 3.0
2015-Aug-29 08:31N 35°23' E 139°38'0 0.0
2015-Aug-29 07:31N 35°23' E 139°38'1 0.8
2015-Aug-29 06:33N 35°24' E 139°39'1 0.6
2015-Aug-29 05:32N 35°23' E 139°40'0 0.1
2015-Aug-29 04:29N 35°23' E 139°40'0 0.0
2015-Aug-29 03:32N 35°23' E 139°40'0 0.0
2015-Aug-29 02:32N 35°23' E 139°40'0 0.0
2015-Aug-29 01:32N 35°23' E 139°40'0 0.0
2015-Aug-29 00:32N 35°23' E 139°40'0 0.0
2015-Aug-28 23:32N 35°23' E 139°40'0 0.0
2015-Aug-28 22:32N 35°23' E 139°40'0 0.0
2015-Aug-28 21:32N 35°23' E 139°40'0 0.0
2015-Aug-28 20:32N 35°23' E 139°40'0 0.0
2015-Aug-28 19:32N 35°23' E 139°40'0 0.0
2015-Aug-28 18:32N 35°23' E 139°40'0 0.0
2015-Aug-28 17:32N 35°23' E 139°40'0 0.0
2015-Aug-28 16:32N 35°23' E 139°40'0 0.0
2015-Aug-28 15:32N 35°23' E 139°40'0 0.0
2015-Aug-28 14:32N 35°23' E 139°40'0 0.0
2015-Aug-28 13:32N 35°23' E 139°40'0 0.0
2015-Aug-28 12:32N 35°23' E 139°40'0 0.0
2015-Aug-28 11:32N 35°23' E 139°40'0 0.1
2015-Aug-28 10:33N 35°23' E 139°40'8 8.2
2015-Aug-28 09:33N 35°28' E 139°48'1212.3
2015-Aug-28 08:33N 35°37' E 139°58'3 2.8
2015-Aug-28 07:29N 35°40' E 139°57'0 0.0
2015-Aug-28 06:17N 35°40' E 139°57'0 0.1
2015-Aug-28 05:34N 35°40' E 139°57'9 8.6
2015-Aug-28 04:33N 35°32' E 139°54'1111.2
2015-Aug-28 03:33N 35°23' E 139°46'1110.6
2015-Aug-28 02:33N 35°12' E 139°47'1110.5
2015-Aug-28 01:33N 35°03' E 139°42'238 9.2
2015-Aug-26 23:33N 34°11' E 134°59'2211.0
2015-Aug-26 21:33N 34°30' E 135°12'1211.6
2015-Aug-26 20:33N 34°36' E 135°24'2 0.5
2015-Aug-26 15:24N 34°35' E 135°27'0 0.0
2015-Aug-26 14:24N 34°35' E 135°27'0 0.0
2015-Aug-26 12:12N 34°35' E 135°27'0 0.0
2015-Aug-26 10:30N 34°35' E 135°27'0 0.0
2015-Aug-26 08:12N 34°35' E 135°27'0 0.0
2015-Aug-26 07:18N 34°35' E 135°27'0 0.0
2015-Aug-26 06:30N 34°35' E 135°27'0 0.0
2015-Aug-26 05:30N 34°35' E 135°27'0 0.0
2015-Aug-26 04:05N 34°35' E 135°27'0 0.0
2015-Aug-26 03:29N 34°35' E 135°27'0 0.0
2015-Aug-26 02:29N 34°35' E 135°27'0 0.0
2015-Aug-26 01:05N 34°35' E 135°27'0 0.0
2015-Aug-26 00:17N 34°35' E 135°27'0 0.0
2015-Aug-25 23:29N 34°35' E 135°27'0 0.0
2015-Aug-25 22:29N 34°35' E 135°27'0 0.0
2015-Aug-25 21:29N 34°35' E 135°27'0 0.0
2015-Aug-25 20:23N 34°35' E 135°27'0 0.0
2015-Aug-25 19:29N 34°35' E 135°27'0 0.0
2015-Aug-25 18:29N 34°35' E 135°27'0 0.0
2015-Aug-25 17:29N 34°35' E 135°27'0 0.0
2015-Aug-25 16:17N 34°35' E 135°27'0 0.0
2015-Aug-25 15:29N 34°35' E 135°27'0 0.0
2015-Aug-25 14:29N 34°35' E 135°27'0 0.0
2015-Aug-25 13:29N 34°35' E 135°27'0 0.0
2015-Aug-25 12:29N 34°35' E 135°27'0 0.0
2015-Aug-25 11:29N 34°35' E 135°27'0 0.0
2015-Aug-25 10:29N 34°35' E 135°27'0 0.0
2015-Aug-25 09:29N 34°35' E 135°27'0 0.0
2015-Aug-25 08:17N 34°35' E 135°27'0 0.0
2015-Aug-25 05:23N 34°35' E 135°27'0 0.0
2015-Aug-25 04:11N 34°35' E 135°27'0 0.0
2015-Aug-25 01:29N 34°35' E 135°27'0 0.0
2015-Aug-25 00:29N 34°35' E 135°27'0 0.0
2015-Aug-24 22:11N 34°35' E 135°27'0 0.0
2015-Aug-24 21:29N 34°35' E 135°27'0 0.0
2015-Aug-24 20:29N 34°35' E 135°27'0 0.0
2015-Aug-24 19:29N 34°35' E 135°27'0 0.0
2015-Aug-24 18:28N 34°35' E 135°27'0 0.0
2015-Aug-24 17:16N 34°35' E 135°27'0 0.0
2015-Aug-24 16:22N 34°35' E 135°27'0 0.0
2015-Aug-24 15:28N 34°35' E 135°27'0 0.0
2015-Aug-24 14:28N 34°35' E 135°27'0 0.0
2015-Aug-24 13:28N 34°35' E 135°27'0 0.0
2015-Aug-24 10:22N 34°35' E 135°27'0 0.0
2015-Aug-24 09:16N 34°35' E 135°27'0 0.0
2015-Aug-24 07:28N 34°35' E 135°27'0 0.0
2015-Aug-24 06:28N 34°35' E 135°27'0 0.0
2015-Aug-24 05:27N 34°35' E 135°27'7 8.3
2015-Aug-24 04:33N 34°36' E 135°18'1212.0
2015-Aug-24 03:33N 34°35' E 135°04'  
Track history (hours):
 
Tides and Currents Weather Stations Pressure Air Temp Water Temp Dewpoint Dewpoint Depression Visibility Wind Speed Wind Dir Waves Ship Positions

Hitachimaru

Last reported at 2015-Aug-31 01:07 UTC. Time now 2015-Aug-31 21:53 UTC.
Position N 34°51' E 139°43'.

Length 83 m; draft 4.5 m.

Type: Cargo ship. MMSI: 431301756.

Date/timePositionNaut miles runAvg speedWind from/ knotsBaromVisibWave heightAir tempDewpointWater temp
2015-Aug-31 01:07N 34°51' E 139°43'1211.8
2015-Aug-31 00:05N 34°53' E 139°57'712.2
2015-Aug-30 23:28N 34°57' E 140°05'3311.3
2015-Aug-30 20:32N 35°20' E 140°35'1111.8
2015-Aug-30 19:33N 35°29' E 140°43'29 9.6
2015-Aug-30 16:33N 35°58' E 140°43'3 3.2
2015-Aug-30 15:33N 35°56' E 140°40'0 0.0
2015-Aug-29 21:25N 35°56' E 140°40'3 3.4
2015-Aug-29 20:33N 35°58' E 140°43'66 9.4
2015-Aug-29 13:33N 34°58' E 140°08'21 9.8
2015-Aug-29 11:25N 34°58' E 139°43'1113.3
2015-Aug-29 10:33N 35°09' E 139°45'1312.7
2015-Aug-29 09:33N 35°22' E 139°42'3 3.0
2015-Aug-29 08:31N 35°23' E 139°38'0 0.0
2015-Aug-29 07:31N 35°23' E 139°38'1 0.8
2015-Aug-29 06:33N 35°24' E 139°39'1 0.6
2015-Aug-29 05:32N 35°23' E 139°40'0 0.1
2015-Aug-29 04:29N 35°23' E 139°40'0 0.0
2015-Aug-29 03:32N 35°23' E 139°40'0 0.0
2015-Aug-29 02:32N 35°23' E 139°40'0 0.0
2015-Aug-29 01:32N 35°23' E 139°40'0 0.0
2015-Aug-29 00:32N 35°23' E 139°40'0 0.0
2015-Aug-28 23:32N 35°23' E 139°40'0 0.0
2015-Aug-28 22:32N 35°23' E 139°40'0 0.0
2015-Aug-28 21:32N 35°23' E 139°40'0 0.0
2015-Aug-28 20:32N 35°23' E 139°40'0 0.0
2015-Aug-28 19:32N 35°23' E 139°40'0 0.0
2015-Aug-28 18:32N 35°23' E 139°40'0 0.0
2015-Aug-28 17:32N 35°23' E 139°40'0 0.0
2015-Aug-28 16:32N 35°23' E 139°40'0 0.0
2015-Aug-28 15:32N 35°23' E 139°40'0 0.0
2015-Aug-28 14:32N 35°23' E 139°40'0 0.0
2015-Aug-28 13:32N 35°23' E 139°40'0 0.0
2015-Aug-28 12:32N 35°23' E 139°40'0 0.0
2015-Aug-28 11:32N 35°23' E 139°40'0 0.1
2015-Aug-28 10:33N 35°23' E 139°40'8 8.2
2015-Aug-28 09:33N 35°28' E 139°48'1212.3
2015-Aug-28 08:33N 35°37' E 139°58'3 2.8
2015-Aug-28 07:29N 35°40' E 139°57'0 0.0
2015-Aug-28 06:17N 35°40' E 139°57'0 0.1
2015-Aug-28 05:34N 35°40' E 139°57'9 8.6
2015-Aug-28 04:33N 35°32' E 139°54'1111.2
2015-Aug-28 03:33N 35°23' E 139°46'1110.6
2015-Aug-28 02:33N 35°12' E 139°47'1110.5
2015-Aug-28 01:33N 35°03' E 139°42'238 9.2
2015-Aug-26 23:33N 34°11' E 134°59'2211.0
2015-Aug-26 21:33N 34°30' E 135°12'1211.6
2015-Aug-26 20:33N 34°36' E 135°24'2 0.5
2015-Aug-26 15:24N 34°35' E 135°27'0 0.0
2015-Aug-26 14:24N 34°35' E 135°27'0 0.0
2015-Aug-26 12:12N 34°35' E 135°27'0 0.0
2015-Aug-26 10:30N 34°35' E 135°27'0 0.0
2015-Aug-26 08:12N 34°35' E 135°27'0 0.0
2015-Aug-26 07:18N 34°35' E 135°27'0 0.0
2015-Aug-26 06:30N 34°35' E 135°27'0 0.0
2015-Aug-26 05:30N 34°35' E 135°27'0 0.0
2015-Aug-26 04:05N 34°35' E 135°27'0 0.0
2015-Aug-26 03:29N 34°35' E 135°27'0 0.0
2015-Aug-26 02:29N 34°35' E 135°27'0 0.0
2015-Aug-26 01:05N 34°35' E 135°27'0 0.0
2015-Aug-26 00:17N 34°35' E 135°27'0 0.0
2015-Aug-25 23:29N 34°35' E 135°27'0 0.0
2015-Aug-25 22:29N 34°35' E 135°27'0 0.0
2015-Aug-25 21:29N 34°35' E 135°27'0 0.0
2015-Aug-25 20:23N 34°35' E 135°27'0 0.0
2015-Aug-25 19:29N 34°35' E 135°27'0 0.0
2015-Aug-25 18:29N 34°35' E 135°27'0 0.0
2015-Aug-25 17:29N 34°35' E 135°27'0 0.0
2015-Aug-25 16:17N 34°35' E 135°27'0 0.0
2015-Aug-25 15:29N 34°35' E 135°27'0 0.0
2015-Aug-25 14:29N 34°35' E 135°27'0 0.0
2015-Aug-25 13:29N 34°35' E 135°27'0 0.0
2015-Aug-25 12:29N 34°35' E 135°27'0 0.0
2015-Aug-25 11:29N 34°35' E 135°27'0 0.0
2015-Aug-25 10:29N 34°35' E 135°27'0 0.0
2015-Aug-25 09:29N 34°35' E 135°27'0 0.0
2015-Aug-25 08:17N 34°35' E 135°27'0 0.0
2015-Aug-25 05:23N 34°35' E 135°27'0 0.0
2015-Aug-25 04:11N 34°35' E 135°27'0 0.0
2015-Aug-25 01:29N 34°35' E 135°27'0 0.0
2015-Aug-25 00:29N 34°35' E 135°27'0 0.0
2015-Aug-24 22:11N 34°35' E 135°27'0 0.0
2015-Aug-24 21:29N 34°35' E 135°27'0 0.0
2015-Aug-24 20:29N 34°35' E 135°27'0 0.0
2015-Aug-24 19:29N 34°35' E 135°27'0 0.0
2015-Aug-24 18:28N 34°35' E 135°27'0 0.0
2015-Aug-24 17:16N 34°35' E 135°27'0 0.0
2015-Aug-24 16:22N 34°35' E 135°27'0 0.0
2015-Aug-24 15:28N 34°35' E 135°27'0 0.0
2015-Aug-24 14:28N 34°35' E 135°27'0 0.0
2015-Aug-24 13:28N 34°35' E 135°27'0 0.0
2015-Aug-24 10:22N 34°35' E 135°27'0 0.0
2015-Aug-24 09:16N 34°35' E 135°27'0 0.0
2015-Aug-24 07:28N 34°35' E 135°27'0 0.0
2015-Aug-24 06:28N 34°35' E 135°27'0 0.0
2015-Aug-24 05:27N 34°35' E 135°27'7 8.3
2015-Aug-24 04:33N 34°36' E 135°18'1212.0
2015-Aug-24 03:33N 34°35' E 135°04'  

Dump ship's entire track history